sensor_id;sensor_type;location;lat;lon;timestamp;temperature;humidity
73509;SHT30;61750;55.036;73.312;2023-04-01T00:02:04;-5.13;71.01
73509;SHT30;61750;55.036;73.312;2023-04-01T00:04:30;-5.15;71.19
73509;SHT30;61750;55.036;73.312;2023-04-01T00:07:04;-5.16;71.17
73509;SHT30;61750;55.036;73.312;2023-04-01T00:09:30;-5.19;71.42
73509;SHT30;61750;55.036;73.312;2023-04-01T00:12:07;-5.15;71.40
73509;SHT30;61750;55.036;73.312;2023-04-01T00:14:33;-5.12;71.47
73509;SHT30;61750;55.036;73.312;2023-04-01T00:17:04;-5.16;71.35
73509;SHT30;61750;55.036;73.312;2023-04-01T00:19:30;-5.19;71.41
73509;SHT30;61750;55.036;73.312;2023-04-01T00:22:04;-5.19;71.56
73509;SHT30;61750;55.036;73.312;2023-04-01T00:24:30;-5.19;71.65
73509;SHT30;61750;55.036;73.312;2023-04-01T00:27:04;-5.22;71.86
73509;SHT30;61750;55.036;73.312;2023-04-01T00:29:31;-5.26;71.92
73509;SHT30;61750;55.036;73.312;2023-04-01T00:32:04;-5.28;72.31
73509;SHT30;61750;55.036;73.312;2023-04-01T00:34:30;-5.31;72.23
73509;SHT30;61750;55.036;73.312;2023-04-01T00:37:04;-5.30;71.98
73509;SHT30;61750;55.036;73.312;2023-04-01T00:39:30;-5.31;71.88
73509;SHT30;61750;55.036;73.312;2023-04-01T00:41:57;-5.34;71.93
73509;SHT30;61750;55.036;73.312;2023-04-01T00:44:25;-5.34;72.28
73509;SHT30;61750;55.036;73.312;2023-04-01T00:47:04;-5.30;72.21
73509;SHT30;61750;55.036;73.312;2023-04-01T00:49:41;-5.28;72.21
73509;SHT30;61750;55.036;73.312;2023-04-01T00:52:08;-5.33;72.12
73509;SHT30;61750;55.036;73.312;2023-04-01T00:54:36;-5.30;72.37
73509;SHT30;61750;55.036;73.312;2023-04-01T00:57:28;-5.23;72.27
73509;SHT30;61750;55.036;73.312;2023-04-01T00:59:51;-5.19;72.10
73509;SHT30;61750;55.036;73.312;2023-04-01T01:02:18;-5.10;71.97
73509;SHT30;61750;55.036;73.312;2023-04-01T01:04:45;-5.15;72.01
73509;SHT30;61750;55.036;73.312;2023-04-01T01:07:24;-5.15;72.05
73509;SHT30;61750;55.036;73.312;2023-04-01T01:12:39;-4.99;71.53
73509;SHT30;61750;55.036;73.312;2023-04-01T01:15:15;-4.96;71.75
73509;SHT30;61750;55.036;73.312;2023-04-01T01:23:03;-4.92;71.55
73509;SHT30;61750;55.036;73.312;2023-04-01T01:25:54;-4.88;71.64
73509;SHT30;61750;55.036;73.312;2023-04-01T01:31:04;-4.78;71.43
73509;SHT30;61750;55.036;73.312;2023-04-01T01:33:42;-4.72;71.14
73509;SHT30;61750;55.036;73.312;2023-04-01T01:39:18;-4.57;70.76
73509;SHT30;61750;55.036;73.312;2023-04-01T01:41:46;-4.49;70.24
73509;SHT30;61750;55.036;73.312;2023-04-01T01:44:15;-4.44;70.14
73509;SHT30;61750;55.036;73.312;2023-04-01T01:47:04;-4.37;69.59
73509;SHT30;61750;55.036;73.312;2023-04-01T01:49:31;-4.32;69.50
73509;SHT30;61750;55.036;73.312;2023-04-01T01:52:04;-4.24;69.72
73509;SHT30;61750;55.036;73.312;2023-04-01T01:54:50;-4.14;69.31
73509;SHT30;61750;55.036;73.312;2023-04-01T01:57:23;-4.04;69.09
73509;SHT30;61750;55.036;73.312;2023-04-01T01:59:52;-3.97;68.98
73509;SHT30;61750;55.036;73.312;2023-04-01T02:02:33;-3.87;68.77
73509;SHT30;61750;55.036;73.312;2023-04-01T02:05:04;-3.79;68.59
73509;SHT30;61750;55.036;73.312;2023-04-01T02:07:31;-3.72;68.37
73509;SHT30;61750;55.036;73.312;2023-04-01T02:09:59;-3.62;68.56
73509;SHT30;61750;55.036;73.312;2023-04-01T02:12:39;-3.55;68.04
73509;SHT30;61750;55.036;73.312;2023-04-01T02:15:07;-3.48;68.15
73509;SHT30;61750;55.036;73.312;2023-04-01T02:17:35;-3.39;67.68
73509;SHT30;61750;55.036;73.312;2023-04-01T02:20:19;-3.36;67.47
73509;SHT30;61750;55.036;73.312;2023-04-01T02:22:48;-3.32;67.82
73509;SHT30;61750;55.036;73.312;2023-04-01T02:25:16;-3.28;67.48
73509;SHT30;61750;55.036;73.312;2023-04-01T02:27:43;-3.21;67.25
73509;SHT30;61750;55.036;73.312;2023-04-01T02:30:11;-3.21;67.27
73509;SHT30;61750;55.036;73.312;2023-04-01T02:32:37;-3.08;67.66
73509;SHT30;61750;55.036;73.312;2023-04-01T02:35:07;-3.05;67.59
73509;SHT30;61750;55.036;73.312;2023-04-01T02:37:35;-2.95;67.34
73509;SHT30;61750;55.036;73.312;2023-04-01T02:40:02;-2.94;67.49
73509;SHT30;61750;55.036;73.312;2023-04-01T02:42:28;-2.87;67.46
73509;SHT30;61750;55.036;73.312;2023-04-01T02:44:54;-2.84;66.95
73509;SHT30;61750;55.036;73.312;2023-04-01T02:47:21;-2.80;66.95
73509;SHT30;61750;55.036;73.312;2023-04-01T02:49:46;-2.76;67.10
73509;SHT30;61750;55.036;73.312;2023-04-01T02:52:12;-2.76;66.28
73509;SHT30;61750;55.036;73.312;2023-04-01T02:54:38;-2.76;66.04
73509;SHT30;61750;55.036;73.312;2023-04-01T02:57:05;-2.68;66.25
73509;SHT30;61750;55.036;73.312;2023-04-01T02:59:31;-2.66;66.20
73509;SHT30;61750;55.036;73.312;2023-04-01T03:02:04;-2.50;66.20
73509;SHT30;61750;55.036;73.312;2023-04-01T03:04:30;-2.64;64.72
73509;SHT30;61750;55.036;73.312;2023-04-01T03:07:04;-2.49;66.11
73509;SHT30;61750;55.036;73.312;2023-04-01T03:09:30;-2.49;65.90
73509;SHT30;61750;55.036;73.312;2023-04-01T03:11:56;-2.43;65.14
73509;SHT30;61750;55.036;73.312;2023-04-01T03:14:23;-2.36;65.40
73509;SHT30;61750;55.036;73.312;2023-04-01T03:17:04;-2.25;65.61
73509;SHT30;61750;55.036;73.312;2023-04-01T03:19:31;-2.22;65.70
73509;SHT30;61750;55.036;73.312;2023-04-01T03:22:04;-2.25;65.12
73509;SHT30;61750;55.036;73.312;2023-04-01T03:24:30;-2.13;65.54
73509;SHT30;61750;55.036;73.312;2023-04-01T03:27:04;-2.02;65.52
73509;SHT30;61750;55.036;73.312;2023-04-01T03:29:30;-2.01;64.55
73509;SHT30;61750;55.036;73.312;2023-04-01T03:32:04;-1.96;65.23
73509;SHT30;61750;55.036;73.312;2023-04-01T03:34:30;-1.95;65.17
73509;SHT30;61750;55.036;73.312;2023-04-01T03:37:04;-2.03;64.77
73509;SHT30;61750;55.036;73.312;2023-04-01T03:39:36;-1.83;65.44
73509;SHT30;61750;55.036;73.312;2023-04-01T03:42:02;-1.92;64.87
73509;SHT30;61750;55.036;73.312;2023-04-01T03:44:31;-1.92;64.42
73509;SHT30;61750;55.036;73.312;2023-04-01T03:47:04;-1.79;64.84
73509;SHT30;61750;55.036;73.312;2023-04-01T03:49:30;-1.78;64.48
73509;SHT30;61750;55.036;73.312;2023-04-01T03:52:04;-1.68;64.78
73509;SHT30;61750;55.036;73.312;2023-04-01T03:54:33;-1.67;64.76
73509;SHT30;61750;55.036;73.312;2023-04-01T03:57:07;-1.69;64.59
73509;SHT30;61750;55.036;73.312;2023-04-01T03:59:34;-1.61;64.91
73509;SHT30;61750;55.036;73.312;2023-04-01T04:02:04;-1.41;64.44
73509;SHT30;61750;55.036;73.312;2023-04-01T04:04:34;-1.30;64.53
73509;SHT30;61750;55.036;73.312;2023-04-01T04:07:07;-1.21;64.32
73509;SHT30;61750;55.036;73.312;2023-04-01T04:09:58;-1.00;63.87
73509;SHT30;61750;55.036;73.312;2023-04-01T04:12:35;-1.11;63.38
73509;SHT30;61750;55.036;73.312;2023-04-01T04:15:04;-0.96;64.32
73509;SHT30;61750;55.036;73.312;2023-04-01T04:17:35;-0.87;63.15
73509;SHT30;61750;55.036;73.312;2023-04-01T04:20:09;-0.89;63.33
73509;SHT30;61750;55.036;73.312;2023-04-01T04:22:36;-0.79;62.71
73509;SHT30;61750;55.036;73.312;2023-04-01T04:25:05;-0.77;61.93
73509;SHT30;61750;55.036;73.312;2023-04-01T04:27:31;-0.80;62.91
73509;SHT30;61750;55.036;73.312;2023-04-01T04:30:06;-0.63;62.50
73509;SHT30;61750;55.036;73.312;2023-04-01T04:32:34;-0.48;61.76
73509;SHT30;61750;55.036;73.312;2023-04-01T04:35:00;-0.39;61.92
73509;SHT30;61750;55.036;73.312;2023-04-01T04:37:26;-0.48;61.43
73509;SHT30;61750;55.036;73.312;2023-04-01T04:39:53;-0.28;61.84
73509;SHT30;61750;55.036;73.312;2023-04-01T04:42:19;-0.23;60.72
73509;SHT30;61750;55.036;73.312;2023-04-01T04:44:45;-0.22;60.74
73509;SHT30;61750;55.036;73.312;2023-04-01T04:47:12;-0.25;60.78
73509;SHT30;61750;55.036;73.312;2023-04-01T04:49:38;-0.32;59.71
73509;SHT30;61750;55.036;73.312;2023-04-01T04:52:07;-0.11;59.65
73509;SHT30;61750;55.036;73.312;2023-04-01T04:54:33;0.06;59.80
73509;SHT30;61750;55.036;73.312;2023-04-01T04:57:07;0.13;59.20
73509;SHT30;61750;55.036;73.312;2023-04-01T04:59:39;0.32;58.90
73509;SHT30;61750;55.036;73.312;2023-04-01T05:02:35;0.40;58.46
73509;SHT30;61750;55.036;73.312;2023-04-01T05:05:06;0.35;57.55
73509;SHT30;61750;55.036;73.312;2023-04-01T05:07:33;0.22;57.89
73509;SHT30;61750;55.036;73.312;2023-04-01T05:09:59;0.16;57.53
73509;SHT30;61750;55.036;73.312;2023-04-01T05:12:25;-0.09;56.84
73509;SHT30;61750;55.036;73.312;2023-04-01T05:14:57;0.01;58.30
73509;SHT30;61750;55.036;73.312;2023-04-01T05:17:29;0.20;58.59
73509;SHT30;61750;55.036;73.312;2023-04-01T05:20:01;0.26;57.26
73509;SHT30;61750;55.036;73.312;2023-04-01T05:22:31;0.29;57.65
73509;SHT30;61750;55.036;73.312;2023-04-01T05:24:57;0.22;58.00
73509;SHT30;61750;55.036;73.312;2023-04-01T05:27:23;0.30;57.22
73509;SHT30;61750;55.036;73.312;2023-04-01T05:29:49;0.39;56.72
73509;SHT30;61750;55.036;73.312;2023-04-01T05:32:38;0.40;57.59
73509;SHT30;61750;55.036;73.312;2023-04-01T05:35:05;0.45;57.21
73509;SHT30;61750;55.036;73.312;2023-04-01T05:37:42;0.36;56.57
73509;SHT30;61750;55.036;73.312;2023-04-01T05:40:08;0.25;57.69
73509;SHT30;61750;55.036;73.312;2023-04-01T05:42:35;0.37;58.32
73509;SHT30;61750;55.036;73.312;2023-04-01T05:45:01;0.30;56.72
73509;SHT30;61750;55.036;73.312;2023-04-01T05:47:50;0.37;57.72
73509;SHT30;61750;55.036;73.312;2023-04-01T05:50:27;0.30;58.10
73509;SHT30;61750;55.036;73.312;2023-04-01T05:52:53;0.76;59.56
73509;SHT30;61750;55.036;73.312;2023-04-01T05:55:19;1.09;58.53
73509;SHT30;61750;55.036;73.312;2023-04-01T05:57:46;1.04;58.11
73509;SHT30;61750;55.036;73.312;2023-04-01T06:00:14;1.02;56.80
73509;SHT30;61750;55.036;73.312;2023-04-01T06:02:41;1.20;58.35
73509;SHT30;61750;55.036;73.312;2023-04-01T06:05:13;1.11;56.70
73509;SHT30;61750;55.036;73.312;2023-04-01T06:07:40;0.88;56.99
73509;SHT30;61750;55.036;73.312;2023-04-01T06:10:14;0.95;56.14
73509;SHT30;61750;55.036;73.312;2023-04-01T06:13:12;1.38;57.03
73509;SHT30;61750;55.036;73.312;2023-04-01T06:15:48;1.55;54.22
73509;SHT30;61750;55.036;73.312;2023-04-01T06:27:21;1.59;55.38
73509;SHT30;61750;55.036;73.312;2023-04-01T06:38:00;2.03;56.02
73509;SHT30;61750;55.036;73.312;2023-04-01T06:45:59;2.10;56.49
73509;SHT30;61750;55.036;73.312;2023-04-01T06:58:25;2.51;57.41
73509;SHT30;61750;55.036;73.312;2023-04-01T07:00:54;2.58;57.30
73509;SHT30;61750;55.036;73.312;2023-04-01T07:05:49;2.58;57.02
73509;SHT30;61750;55.036;73.312;2023-04-01T07:08:21;2.52;56.73
73509;SHT30;61750;55.036;73.312;2023-04-01T07:11:08;2.72;56.47
73509;SHT30;61750;55.036;73.312;2023-04-01T07:14:00;2.52;55.82
73509;SHT30;61750;55.036;73.312;2023-04-01T07:17:06;2.84;55.30
73509;SHT30;61750;55.036;73.312;2023-04-01T07:19:39;2.94;56.29
73509;SHT30;61750;55.036;73.312;2023-04-01T07:25:29;3.11;55.67
73509;SHT30;61750;55.036;73.312;2023-04-01T07:28:17;3.06;56.14
73509;SHT30;61750;55.036;73.312;2023-04-01T07:33:39;3.15;54.43
73509;SHT30;61750;55.036;73.312;2023-04-01T07:36:16;3.05;54.26
73509;SHT30;61750;55.036;73.312;2023-04-01T07:38:59;3.12;56.18
73509;SHT30;61750;55.036;73.312;2023-04-01T07:44:35;3.53;55.00
73509;SHT30;61750;55.036;73.312;2023-04-01T07:52:06;3.39;53.16
73509;SHT30;61750;55.036;73.312;2023-04-01T07:57:12;3.32;53.03
73509;SHT30;61750;55.036;73.312;2023-04-01T08:02:30;3.04;54.71
73509;SHT30;61750;55.036;73.312;2023-04-01T08:05:06;3.13;55.55
73509;SHT30;61750;55.036;73.312;2023-04-01T08:07:43;3.55;55.25
73509;SHT30;61750;55.036;73.312;2023-04-01T08:10:36;3.70;54.54
73509;SHT30;61750;55.036;73.312;2023-04-01T08:13:35;3.53;54.49
73509;SHT30;61750;55.036;73.312;2023-04-01T08:19:31;3.66;54.46
73509;SHT30;61750;55.036;73.312;2023-04-01T08:22:09;3.57;55.28
73509;SHT30;61750;55.036;73.312;2023-04-01T08:24:38;3.29;54.24
73509;SHT30;61750;55.036;73.312;2023-04-01T08:29:58;3.98;53.71
73509;SHT30;61750;55.036;73.312;2023-04-01T08:32:36;4.12;52.74
73509;SHT30;61750;55.036;73.312;2023-04-01T08:35:08;4.51;51.53
73509;SHT30;61750;55.036;73.312;2023-04-01T08:37:44;4.25;51.96
73509;SHT30;61750;55.036;73.312;2023-04-01T09:11:43;5.34;49.10
73509;SHT30;61750;55.036;73.312;2023-04-01T09:22:37;4.86;48.99
73509;SHT30;61750;55.036;73.312;2023-04-01T09:30:38;5.64;48.36
73509;SHT30;61750;55.036;73.312;2023-04-01T09:35:46;5.79;46.78
73509;SHT30;61750;55.036;73.312;2023-04-01T09:38:23;5.95;47.42
73509;SHT30;61750;55.036;73.312;2023-04-01T09:44:25;6.66;47.24
73509;SHT30;61750;55.036;73.312;2023-04-01T09:47:42;6.83;47.30
73509;SHT30;61750;55.036;73.312;2023-04-01T09:50:14;7.30;46.86
73509;SHT30;61750;55.036;73.312;2023-04-01T09:53:00;7.03;46.92
73509;SHT30;61750;55.036;73.312;2023-04-01T10:14:52;7.90;43.97
73509;SHT30;61750;55.036;73.312;2023-04-01T10:22:57;8.17;43.49
73509;SHT30;61750;55.036;73.312;2023-04-01T10:31:04;8.85;42.96
73509;SHT30;61750;55.036;73.312;2023-04-01T10:39:20;8.29;44.07
73509;SHT30;61750;55.036;73.312;2023-04-01T10:56:09;7.76;46.05
73509;SHT30;61750;55.036;73.312;2023-04-01T10:59:08;8.07;44.93
73509;SHT30;61750;55.036;73.312;2023-04-01T11:18:48;8.68;43.45
73509;SHT30;61750;55.036;73.312;2023-04-01T11:24:07;8.95;43.86
73509;SHT30;61750;55.036;73.312;2023-04-01T11:29:46;9.38;42.39
73509;SHT30;61750;55.036;73.312;2023-04-01T11:32:29;9.46;42.50
73509;SHT30;61750;55.036;73.312;2023-04-01T11:37:55;8.89;43.17
73509;SHT30;61750;55.036;73.312;2023-04-01T11:43:52;8.98;43.64
73509;SHT30;61750;55.036;73.312;2023-04-01T11:57:35;8.34;44.35
73509;SHT30;61750;55.036;73.312;2023-04-01T12:00:15;8.02;45.20
73509;SHT30;61750;55.036;73.312;2023-04-01T12:05:50;8.23;44.39
73509;SHT30;61750;55.036;73.312;2023-04-01T12:11:23;8.77;43.86
73509;SHT30;61750;55.036;73.312;2023-04-01T12:32:27;7.76;46.12
73509;SHT30;61750;55.036;73.312;2023-04-01T13:16:22;2.23;59.38
73509;SHT30;61750;55.036;73.312;2023-04-01T13:24:19;1.25;63.38
73509;SHT30;61750;55.036;73.312;2023-04-01T13:30:11;0.80;65.32
73509;SHT30;61750;55.036;73.312;2023-04-01T13:32:45;0.66;65.71
73509;SHT30;61750;55.036;73.312;2023-04-01T13:37:52;0.30;66.89
73509;SHT30;61750;55.036;73.312;2023-04-01T13:43:10;0.17;67.61
73509;SHT30;61750;55.036;73.312;2023-04-01T13:50:48;-0.14;69.14
73509;SHT30;61750;55.036;73.312;2023-04-01T13:55:53;-0.22;69.33
73509;SHT30;61750;55.036;73.312;2023-04-01T14:03:26;-0.26;69.26
73509;SHT30;61750;55.036;73.312;2023-04-01T14:10:55;-0.43;70.03
73509;SHT30;61750;55.036;73.312;2023-04-01T14:21:28;-0.52;70.24
73509;SHT30;61750;55.036;73.312;2023-04-01T14:29:42;-0.55;70.15
73509;SHT30;61750;55.036;73.312;2023-04-01T14:32:11;-0.56;70.10
73509;SHT30;61750;55.036;73.312;2023-04-01T14:34:49;-0.65;70.27
73509;SHT30;61750;55.036;73.312;2023-04-01T14:40:28;-0.60;70.14
73509;SHT30;61750;55.036;73.312;2023-04-01T14:43:10;-0.63;70.26
73509;SHT30;61750;55.036;73.312;2023-04-01T14:48:28;-0.66;70.49
73509;SHT30;61750;55.036;73.312;2023-04-01T14:51:02;-0.69;70.62
73509;SHT30;61750;55.036;73.312;2023-04-01T14:53:35;-0.69;70.50
73509;SHT30;61750;55.036;73.312;2023-04-01T14:56:04;-0.70;70.59
73509;SHT30;61750;55.036;73.312;2023-04-01T15:01:31;-0.77;70.76
73509;SHT30;61750;55.036;73.312;2023-04-01T15:06:32;-0.73;70.22
73509;SHT30;61750;55.036;73.312;2023-04-01T15:09:14;-0.73;70.25
73509;SHT30;61750;55.036;73.312;2023-04-01T15:22:23;-0.87;70.17
73509;SHT30;61750;55.036;73.312;2023-04-01T15:25:45;-0.90;70.13
73509;SHT30;61750;55.036;73.312;2023-04-01T15:35:21;-0.84;69.58
73509;SHT30;61750;55.036;73.312;2023-04-01T15:40:47;-0.89;69.49
73509;SHT30;61750;55.036;73.312;2023-04-01T15:51:39;-0.90;69.46
73509;SHT30;61750;55.036;73.312;2023-04-01T16:21:05;-1.14;69.71
73509;SHT30;61750;55.036;73.312;2023-04-01T16:29:03;-1.13;69.30
73509;SHT30;61750;55.036;73.312;2023-04-01T16:37:21;-1.21;69.34
73509;SHT30;61750;55.036;73.312;2023-04-01T16:40:10;-1.24;69.47
73509;SHT30;61750;55.036;73.312;2023-04-01T16:42:43;-1.24;69.55
73509;SHT30;61750;55.036;73.312;2023-04-01T16:45:21;-1.21;69.33
73509;SHT30;61750;55.036;73.312;2023-04-01T16:47:56;-1.21;69.41
73509;SHT30;61750;55.036;73.312;2023-04-01T16:50:24;-1.25;69.28
73509;SHT30;61750;55.036;73.312;2023-04-01T16:55:48;-1.27;69.32
73509;SHT30;61750;55.036;73.312;2023-04-01T16:58:23;-1.25;69.37
73509;SHT30;61750;55.036;73.312;2023-04-01T17:00:52;-1.27;69.23
73509;SHT30;61750;55.036;73.312;2023-04-01T17:11:19;-1.33;69.41
73509;SHT30;61750;55.036;73.312;2023-04-01T17:13:59;-1.35;69.42
73509;SHT30;61750;55.036;73.312;2023-04-01T17:17:08;-1.31;69.21
73509;SHT30;61750;55.036;73.312;2023-04-01T17:22:07;-1.37;69.33
73509;SHT30;61750;55.036;73.312;2023-04-01T17:24:48;-1.37;69.30
73509;SHT30;61750;55.036;73.312;2023-04-01T17:32:44;-1.43;69.67
73509;SHT30;61750;55.036;73.312;2023-04-01T17:35:27;-1.43;69.69
73509;SHT30;61750;55.036;73.312;2023-04-01T17:45:38;-1.54;70.18
73509;SHT30;61750;55.036;73.312;2023-04-01T17:51:01;-1.54;70.26
73509;SHT30;61750;55.036;73.312;2023-04-01T17:56:09;-1.61;70.37
73509;SHT30;61750;55.036;73.312;2023-04-01T18:14:21;-1.61;70.67
73509;SHT30;61750;55.036;73.312;2023-04-01T18:25:01;-1.59;70.42
73509;SHT30;61750;55.036;73.312;2023-04-01T18:27:40;-1.67;70.56
73509;SHT30;61750;55.036;73.312;2023-04-01T18:30:31;-1.64;70.03
73509;SHT30;61750;55.036;73.312;2023-04-01T18:38:12;-1.77;70.71
73509;SHT30;61750;55.036;73.312;2023-04-01T18:40:45;-1.78;70.88
73509;SHT30;61750;55.036;73.312;2023-04-01T18:49:21;-1.82;70.85
73509;SHT30;61750;55.036;73.312;2023-04-01T18:51:26;-1.81;70.72
73509;SHT30;61750;55.036;73.312;2023-04-01T18:57:13;-1.89;70.61
73509;SHT30;61750;55.036;73.312;2023-04-01T18:59:55;-1.82;70.35
73509;SHT30;61750;55.036;73.312;2023-04-01T19:13:06;-1.88;69.78
73509;SHT30;61750;55.036;73.312;2023-04-01T19:15:44;-1.82;69.68
73509;SHT30;61750;55.036;73.312;2023-04-01T19:20:49;-1.85;69.62
73509;SHT30;61750;55.036;73.312;2023-04-01T19:34:58;-1.91;69.66
73509;SHT30;61750;55.036;73.312;2023-04-01T19:37:32;-1.95;69.68
73509;SHT30;61750;55.036;73.312;2023-04-01T19:48:04;-1.92;69.65
73509;SHT30;61750;55.036;73.312;2023-04-01T19:53:11;-2.05;69.92
73509;SHT30;61750;55.036;73.312;2023-04-01T19:58:55;-2.09;70.29
73509;SHT30;61750;55.036;73.312;2023-04-01T20:01:01;-2.13;70.56
73509;SHT30;61750;55.036;73.312;2023-04-01T20:11:21;-2.26;71.08
73509;SHT30;61750;55.036;73.312;2023-04-01T20:16:21;-2.29;71.06
73509;SHT30;61750;55.036;73.312;2023-04-01T20:18:55;-2.33;71.29
73509;SHT30;61750;55.036;73.312;2023-04-01T20:22:05;-2.42;71.67
73509;SHT30;61750;55.036;73.312;2023-04-01T20:24:41;-2.44;71.93
73509;SHT30;61750;55.036;73.312;2023-04-01T20:27:21;-2.42;71.82
73509;SHT30;61750;55.036;73.312;2023-04-01T20:32:38;-2.49;72.24
73509;SHT30;61750;55.036;73.312;2023-04-01T20:37:42;-2.60;72.54
73509;SHT30;61750;55.036;73.312;2023-04-01T20:40:27;-2.61;72.77
73509;SHT30;61750;55.036;73.312;2023-04-01T20:43:08;-2.58;72.96
73509;SHT30;61750;55.036;73.312;2023-04-01T20:53:35;-2.78;73.66
73509;SHT30;61750;55.036;73.312;2023-04-01T20:58:31;-2.78;73.89
73509;SHT30;61750;55.036;73.312;2023-04-01T21:01:20;-2.81;73.99
73509;SHT30;61750;55.036;73.312;2023-04-01T21:06:39;-2.84;74.19
73509;SHT30;61750;55.036;73.312;2023-04-01T21:09:15;-2.85;73.99
73509;SHT30;61750;55.036;73.312;2023-04-01T21:14:34;-2.92;74.31
73509;SHT30;61750;55.036;73.312;2023-04-01T21:17:08;-2.95;74.37
73509;SHT30;61750;55.036;73.312;2023-04-01T21:32:48;-3.08;74.97
73509;SHT30;61750;55.036;73.312;2023-04-01T21:35:37;-3.12;75.24
73509;SHT30;61750;55.036;73.312;2023-04-01T21:38:11;-3.12;75.11
73509;SHT30;61750;55.036;73.312;2023-04-01T21:48:51;-3.21;75.77
73509;SHT30;61750;55.036;73.312;2023-04-01T22:15:14;-3.35;76.80
73509;SHT30;61750;55.036;73.312;2023-04-01T22:17:53;-3.31;76.16
73509;SHT30;61750;55.036;73.312;2023-04-01T22:20:28;-3.22;76.09
73509;SHT30;61750;55.036;73.312;2023-04-01T22:25:40;-3.19;75.62
73509;SHT30;61750;55.036;73.312;2023-04-01T22:28:11;-3.19;75.52
73509;SHT30;61750;55.036;73.312;2023-04-01T22:30:39;-3.28;75.74
73509;SHT30;61750;55.036;73.312;2023-04-01T22:33:10;-3.28;75.84
73509;SHT30;61750;55.036;73.312;2023-04-01T22:35:45;-3.31;76.01
73509;SHT30;61750;55.036;73.312;2023-04-01T22:41:00;-3.28;76.03
73509;SHT30;61750;55.036;73.312;2023-04-01T22:43:38;-3.31;75.97
73509;SHT30;61750;55.036;73.312;2023-04-01T22:46:11;-3.34;76.13
73509;SHT30;61750;55.036;73.312;2023-04-01T22:48:43;-3.36;76.05
73509;SHT30;61750;55.036;73.312;2023-04-01T22:53:45;-3.46;76.42
73509;SHT30;61750;55.036;73.312;2023-04-01T22:56:37;-3.55;76.39
73509;SHT30;61750;55.036;73.312;2023-04-01T22:59:10;-3.58;76.70
73509;SHT30;61750;55.036;73.312;2023-04-01T23:02:23;-3.62;76.92
73509;SHT30;61750;55.036;73.312;2023-04-01T23:04:55;-3.64;76.90
73509;SHT30;61750;55.036;73.312;2023-04-01T23:13:00;-3.72;77.29
73509;SHT30;61750;55.036;73.312;2023-04-01T23:15:26;-3.74;77.35
73509;SHT30;61750;55.036;73.312;2023-04-01T23:21:06;-3.82;77.64
73509;SHT30;61750;55.036;73.312;2023-04-01T23:23:41;-3.83;77.70
73509;SHT30;61750;55.036;73.312;2023-04-01T23:26:36;-3.84;77.62
73509;SHT30;61750;55.036;73.312;2023-04-01T23:29:00;-3.87;77.70
73509;SHT30;61750;55.036;73.312;2023-04-01T23:32:04;-3.84;77.67
73509;SHT30;61750;55.036;73.312;2023-04-01T23:34:31;-3.87;77.52
73509;SHT30;61750;55.036;73.312;2023-04-01T23:37:05;-3.87;77.49
73509;SHT30;61750;55.036;73.312;2023-04-01T23:39:35;-3.90;77.63
73509;SHT30;61750;55.036;73.312;2023-04-01T23:42:05;-3.89;77.51
73509;SHT30;61750;55.036;73.312;2023-04-01T23:44:43;-3.90;77.45
73509;SHT30;61750;55.036;73.312;2023-04-01T23:47:14;-3.91;77.32
73509;SHT30;61750;55.036;73.312;2023-04-01T23:49:43;-3.89;77.20
73509;SHT30;61750;55.036;73.312;2023-04-01T23:57:40;-3.94;77.45
